Time;durP1;ratioP1;P1;durP2;ratioP2;P2;SDS_P1;SDS_P2;PMS_P1;PMS_P2;Temp;Humidity;BMP_temperature;BMP_pressure;BME280_temperature;BME280_humidity;BME280_pressure;Samples;Min_cycle;Max_cycle;Signal;HPM_P1;HPM_P2
2022/01/17 00:00:24;;;;;;;29.20;11.20;;;;;;;3.25;85.02;100500.48;106359;1270;243503;-62
2022/01/17 00:03:13;;;;;;;26.50;10.30;;;;;;;3.26;85.01;100496.83;106502;1271;26510;-59
2022/01/17 00:05:44;;;;;;;25.60;10.90;;;;;;;3.27;84.89;100484.83;106622;1270;24275;-61
2022/01/17 00:08:16;;;;;;;29.00;10.30;;;;;;;3.29;84.83;100483.45;106659;1270;23927;-60
2022/01/17 00:10:49;;;;;;;25.50;9.70;;;;;;;3.32;84.65;100481.11;106595;1271;22742;-60
2022/01/17 00:13:25;;;;;;;27.90;10.70;;;;;;;3.34;84.82;100482.03;106632;1270;24009;-59
2022/01/17 00:16:03;;;;;;;28.20;9.90;;;;;;;3.35;85.02;100472.29;106686;1271;26507;-61
2022/01/17 00:21:22;;;;;;;23.10;8.20;;;;;;;3.35;85.24;100457.88;106427;1271;24225;-61
2022/01/17 00:23:54;;;;;;;25.50;9.80;;;;;;;3.34;85.14;100455.21;106437;1271;22548;-59
2022/01/17 00:26:25;;;;;;;30.40;11.40;;;;;;;3.35;85.05;100457.33;106524;1270;22553;-59
2022/01/17 00:28:56;;;;;;;30.50;11.50;;;;;;;3.38;85.00;100458.52;106533;1270;25275;-61
2022/01/17 00:31:26;;;;;;;26.20;10.80;;;;;;;3.40;84.87;100454.69;106589;1271;24278;-62
2022/01/17 00:33:57;;;;;;;23.00;9.60;;;;;;;3.42;84.72;100450.71;106537;1270;22487;-60
2022/01/17 00:36:28;;;;;;;28.50;11.20;;;;;;;3.45;84.65;100440.01;106570;1271;22659;-61
2022/01/17 00:39:00;;;;;;;24.50;10.20;;;;;;;3.47;84.46;100432.23;106505;1270;22657;-61
2022/01/17 00:41:31;;;;;;;30.50;10.10;;;;;;;3.49;84.24;100435.03;106716;1270;26523;-60
2022/01/17 00:44:01;;;;;;;29.80;11.80;;;;;;;3.52;84.20;100435.21;106501;1271;25629;-61
2022/01/17 00:46:33;;;;;;;24.60;9.10;;;;;;;3.54;84.13;100433.52;106496;1270;25393;-62
2022/01/17 00:49:04;;;;;;;25.20;9.20;;;;;;;3.56;83.86;100430.23;106670;1271;22719;-60
2022/01/17 00:51:35;;;;;;;24.00;9.90;;;;;;;3.60;83.83;100430.94;106509;1271;22535;-60
2022/01/17 00:54:04;;;;;;;;;;;;;;;3.61;83.74;100424.98;106599;1271;22551;-61
2022/01/17 00:56:35;;;;;;;25.80;9.30;;;;;;;3.63;83.56;100430.79;106453;1271;22481;-61
2022/01/17 00:59:06;;;;;;;27.40;7.50;;;;;;;3.64;83.54;100429.41;106529;1270;22562;-61
2022/01/17 01:01:37;;;;;;;24.80;9.40;;;;;;;3.67;83.31;100427.16;106514;1270;22573;-60
2022/01/17 01:04:08;;;;;;;21.90;7.80;;;;;;;3.67;83.58;100425.25;106459;1271;23074;-61
2022/01/17 01:06:40;;;;;;;23.10;6.80;;;;;;;3.67;83.46;100422.81;106577;1270;22531;-61
2022/01/17 01:09:11;;;;;;;23.00;8.70;;;;;;;3.68;83.22;100416.71;106437;1271;25215;-60
2022/01/17 01:11:55;;;;;;;23.40;9.00;;;;;;;3.70;83.46;100415.98;106442;1271;22602;-60
2022/01/17 01:14:29;;;;;;;27.70;9.70;;;;;;;3.69;83.67;100411.72;106592;1270;22616;-60
2022/01/17 01:17:07;;;;;;;20.70;7.60;;;;;;;3.67;83.68;100403.95;106447;1271;23978;-61
2022/01/17 01:19:42;;;;;;;20.60;8.00;;;;;;;3.66;83.69;100402.30;106565;1271;22551;-61
2022/01/17 01:27:55;;;;;;;24.90;8.50;;;;;;;3.69;83.23;100395.71;106457;1270;24298;-60
2022/01/17 01:30:28;;;;;;;25.10;8.80;;;;;;;3.69;83.57;100386.64;106586;1271;22541;-59
2022/01/17 01:33:04;;;;;;;17.20;6.40;;;;;;;3.68;83.44;100377.35;106726;1271;25383;-61
2022/01/17 01:35:47;;;;;;;20.50;6.50;;;;;;;3.67;83.55;100387.30;106553;1270;25570;-61
2022/01/17 01:38:21;;;;;;;24.60;8.10;;;;;;;3.66;83.76;100383.70;106567;1271;22534;-60
2022/01/17 01:40:52;;;;;;;23.30;7.70;;;;;;;3.63;83.90;100386.84;106644;1271;25273;-59
2022/01/17 01:43:23;;;;;;;25.80;8.40;;;;;;;3.62;83.89;100385.08;106428;1271;25278;-60
2022/01/17 01:45:59;;;;;;;22.10;8.50;;;;;;;3.61;84.00;100384.30;106664;1270;22480;-60
2022/01/17 01:48:32;;;;;;;22.40;8.50;;;;;;;3.60;84.00;100385.89;106617;1271;25276;-60
2022/01/17 01:51:04;;;;;;;22.20;8.30;;;;;;;3.59;83.96;100382.67;107603;1270;23921;-61
2022/01/17 01:53:35;;;;;;;20.20;7.10;;;;;;;3.60;83.87;100378.65;106670;1270;25372;-60
2022/01/17 01:56:06;;;;;;;24.00;8.30;;;;;;;3.60;83.87;100370.58;106555;1270;22517;-61
2022/01/17 01:58:40;;;;;;;18.50;6.90;;;;;;;3.60;83.80;100365.77;106547;1270;22540;-60
2022/01/17 02:01:11;;;;;;;23.10;8.90;;;;;;;3.62;83.66;100368.59;106536;1270;22687;-61
2022/01/17 02:03:42;;;;;;;22.80;8.00;;;;;;;3.63;83.78;100359.25;106523;1270;22480;-61
2022/01/17 02:06:13;;;;;;;17.20;5.70;;;;;;;3.63;83.81;100349.31;106586;1271;24300;-59
2022/01/17 02:08:44;;;;;;;20.20;6.80;;;;;;;3.62;83.69;100347.90;106499;1270;22577;-60
2022/01/17 02:11:16;;;;;;;23.30;7.70;;;;;;;3.63;83.66;100341.40;106557;1270;22541;-59
2022/01/17 02:13:47;;;;;;;21.40;6.70;;;;;;;3.64;83.66;100340.91;106526;1270;22541;-60
2022/01/17 02:16:19;;;;;;;17.80;5.60;;;;;;;3.65;83.81;100343.04;106609;1270;25264;-59
2022/01/17 02:18:50;;;;;;;21.00;7.90;;;;;;;3.65;83.73;100345.39;106679;1270;22669;-60
2022/01/17 02:21:33;;;;;;;21.20;8.00;;;;;;;3.66;83.82;100337.95;106564;1270;24348;-60
2022/01/17 02:24:05;;;;;;;18.20;5.70;;;;;;;3.68;83.87;100330.41;106614;1271;24216;-61
2022/01/17 02:26:36;;;;;;;18.80;7.10;;;;;;;3.68;83.90;100320.10;106548;1270;25386;-60
2022/01/17 02:29:14;;;;;;;19.70;7.90;;;;;;;3.67;83.95;100317.66;106310;1270;22481;-61
2022/01/17 02:31:50;;;;;;;21.10;7.30;;;;;;;3.67;83.95;100322.16;106219;1270;22702;-61
2022/01/17 02:34:27;;;;;;;17.30;6.00;;;;;;;3.66;84.01;100317.83;106372;1270;24390;-60
2022/01/17 02:36:59;;;;;;;20.90;7.70;;;;;;;3.66;84.09;100305.21;106659;1271;25365;-61
2022/01/17 02:39:29;;;;;;;21.10;7.20;;;;;;;3.66;84.12;100303.90;106699;1270;24240;-59
2022/01/17 02:42:03;;;;;;;21.40;6.50;;;;;;;3.66;84.21;100305.54;106444;1270;26648;-60
2022/01/17 02:44:44;;;;;;;23.80;7.40;;;;;;;3.66;84.21;100303.40;106490;1270;22563;-60
2022/01/17 02:47:20;;;;;;;18.60;6.90;;;;;;;3.67;84.25;100296.13;106530;1271;25682;-61
2022/01/17 02:49:51;;;;;;;20.80;7.30;;;;;;;3.67;84.29;100289.97;106376;1270;25643;-60
2022/01/17 02:52:24;;;;;;;22.20;8.10;;;;;;;3.68;84.22;100287.37;106413;1270;22664;-61
2022/01/17 02:54:55;;;;;;;18.60;6.10;;;;;;;3.68;84.30;100289.49;106419;1271;22983;-60
2022/01/17 02:57:28;;;;;;;22.70;7.40;;;;;;;3.69;84.36;100286.31;106317;1271;22566;-61
2022/01/17 02:59:58;;;;;;;22.40;8.20;;;;;;;3.69;84.38;100289.38;106288;1270;22720;-61
2022/01/17 03:02:33;;;;;;;24.70;7.50;;;;;;;3.71;84.34;100292.48;106549;1270;25946;-60
2022/01/17 03:05:07;;;;;;;20.00;6.80;;;;;;;3.72;84.40;100282.45;106665;1270;25273;-60
2022/01/17 03:07:59;;;;;;;21.10;8.00;;;;;;;3.73;84.36;100288.41;106614;1271;25386;-59
2022/01/17 03:10:39;;;;;;;19.00;6.70;;;;;;;3.74;84.37;100277.20;106610;1270;25258;-60
2022/01/17 03:13:13;;;;;;;22.10;8.00;;;;;;;3.75;84.38;100279.67;106704;1270;22532;-59
2022/01/17 03:15:56;;;;;;;22.30;8.70;;;;;;;3.76;84.41;100272.87;106701;1270;25518;-60
2022/01/17 03:18:29;;;;;;;21.90;8.70;;;;;;;3.77;84.71;100275.61;106586;1270;22584;-60
2022/01/17 03:21:01;;;;;;;21.90;8.10;;;;;;;3.76;84.75;100276.02;106575;1270;22553;-59
2022/01/17 03:23:32;;;;;;;21.50;9.00;;;;;;;3.75;84.81;100279.36;106659;1270;22528;-60
2022/01/17 03:26:12;;;;;;;22.30;7.70;;;;;;;3.77;84.90;100277.51;106605;1270;25312;-60
2022/01/17 03:28:43;;;;;;;25.10;9.60;;;;;;;3.77;84.93;100274.66;106595;1271;22768;-60
2022/01/17 03:31:17;;;;;;;23.60;7.70;;;;;;;3.78;85.07;100274.33;106577;1270;22667;-60
2022/01/17 03:33:50;;;;;;;21.90;7.50;;;;;;;3.78;85.19;100268.48;106661;1271;22651;-60
2022/01/17 03:36:24;;;;;;;21.80;8.30;;;;;;;3.78;85.25;100262.72;106615;1270;25268;-60
2022/01/17 03:38:57;;;;;;;22.50;9.20;;;;;;;3.77;85.38;100262.75;106611;1270;22609;-59
2022/01/17 03:41:29;;;;;;;21.70;8.20;;;;;;;3.77;85.37;100258.11;106590;1270;22611;-59
2022/01/17 03:43:59;;;;;;;21.10;8.70;;;;;;;3.77;85.19;100251.63;106501;1270;22626;-61
2022/01/17 03:46:30;;;;;;;22.40;9.10;;;;;;;3.78;85.21;100248.52;106564;1270;24232;-60
2022/01/17 03:49:02;;;;;;;23.30;7.50;;;;;;;3.80;85.34;100249.84;106646;1270;22537;-59
2022/01/17 03:51:33;;;;;;;20.10;7.70;;;;;;;3.80;85.48;100251.09;106698;1270;24339;-61
2022/01/17 03:54:07;;;;;;;18.50;6.70;;;;;;;3.79;85.51;100255.91;106575;1270;22576;-61
2022/01/17 03:56:41;;;;;;;22.90;9.30;;;;;;;3.79;85.61;100246.98;106677;1270;22551;-60
2022/01/17 03:59:12;;;;;;;19.20;7.00;;;;;;;3.80;85.58;100248.88;106539;1270;24236;-59
2022/01/17 04:01:43;;;;;;;21.00;8.20;;;;;;;3.80;85.47;100233.95;106786;1270;24584;-59
2022/01/17 04:04:15;;;;;;;23.00;9.20;;;;;;;3.82;85.44;100233.35;106630;1270;24211;-60
2022/01/17 04:06:46;;;;;;;21.20;8.00;;;;;;;3.82;85.40;100233.03;106736;1270;25283;-59
2022/01/17 04:09:16;;;;;;;21.30;8.00;;;;;;;3.83;85.36;100230.40;106546;1270;22532;-60
2022/01/17 04:11:48;;;;;;;19.30;7.30;;;;;;;3.85;85.23;100223.89;106557;1270;26137;-60
2022/01/17 04:14:19;;;;;;;20.50;8.60;;;;;;;3.87;85.06;100220.60;106583;1270;25380;-60
2022/01/17 04:16:50;;;;;;;19.50;7.40;;;;;;;3.88;84.93;100219.00;106653;1270;25267;-59
2022/01/17 04:19:21;;;;;;;18.80;6.10;;;;;;;3.91;84.85;100215.05;106503;1270;26532;-61
2022/01/17 04:21:52;;;;;;;18.50;6.00;;;;;;;3.93;84.77;100213.09;106702;1269;22698;-60
2022/01/17 04:24:23;;;;;;;21.70;7.70;;;;;;;3.95;84.66;100212.11;106557;1270;22543;-60
2022/01/17 04:26:55;;;;;;;21.40;6.80;;;;;;;3.97;84.54;100199.65;106539;1270;22547;-59
2022/01/17 04:29:30;;;;;;;20.20;7.60;;;;;;;3.99;84.55;100183.11;107003;1270;22593;-61
2022/01/17 04:32:02;;;;;;;19.50;7.10;;;;;;;4.00;84.39;100183.86;107485;1270;23915;-60
2022/01/17 04:34:34;;;;;;;17.30;5.90;;;;;;;4.02;84.24;100175.21;106584;1270;22533;-60
2022/01/17 04:37:08;;;;;;;21.60;7.60;;;;;;;4.04;84.07;100168.45;106792;1270;22535;-61
2022/01/17 04:39:42;;;;;;;20.10;6.30;;;;;;;4.05;83.96;100164.49;106502;1269;22541;-60
2022/01/17 04:42:26;;;;;;;22.60;6.00;;;;;;;4.06;83.80;100166.27;106551;1270;25393;-61
2022/01/17 04:45:16;;;;;;;19.30;5.60;;;;;;;4.07;83.70;100174.67;106545;1270;25339;-61
2022/01/17 04:47:53;;;;;;;16.00;5.20;;;;;;;4.09;83.35;100178.41;106549;1270;26587;-60
2022/01/17 04:50:26;;;;;;;15.40;4.40;;;;;;;4.12;83.47;100172.61;106580;1269;22555;-61
2022/01/17 04:53:00;;;;;;;14.60;3.70;;;;;;;4.12;83.20;100165.15;106596;1270;22527;-61
2022/01/17 04:55:31;;;;;;;13.70;4.30;;;;;;;4.14;82.96;100167.54;106620;1270;22556;-61
2022/01/17 04:58:06;;;;;;;20.40;4.90;;;;;;;4.16;82.88;100168.42;106530;1270;25453;-60
2022/01/17 05:00:46;;;;;;;14.20;4.60;;;;;;;4.18;82.83;100167.11;106543;1270;22577;-60
2022/01/17 05:03:39;;;;;;;14.50;4.20;;;;;;;4.20;82.97;100164.54;106554;1271;23913;-59
2022/01/17 05:06:24;;;;;;;15.40;4.80;;;;;;;4.20;82.78;100158.21;106608;1270;22660;-60
2022/01/17 05:09:11;;;;;;;16.80;4.30;;;;;;;4.21;82.80;100148.71;106634;1271;22528;-59
2022/01/17 05:12:02;;;;;;;13.70;4.00;;;;;;;4.22;82.90;100145.71;106452;1270;22714;-59
2022/01/17 05:14:34;;;;;;;13.10;4.10;;;;;;;4.22;82.56;100149.89;106363;1270;22559;-61
2022/01/17 05:17:21;;;;;;;15.40;3.30;;;;;;;4.24;82.55;100161.37;106574;1271;22698;-60
2022/01/17 05:23:27;;;;;;;14.90;4.30;;;;;;;4.26;82.61;100144.56;106502;1271;23941;-61
2022/01/17 05:26:02;;;;;;;15.00;4.20;;;;;;;4.26;82.51;100146.21;106493;1271;22542;-60
2022/01/17 05:28:35;;;;;;;19.00;4.80;;;;;;;4.27;82.20;100147.45;106569;1270;22560;-59
2022/01/17 05:31:10;;;;;;;17.10;4.70;;;;;;;4.28;82.46;100147.26;106218;1270;22563;-59
2022/01/17 05:33:43;;;;;;;13.90;4.10;;;;;;;4.29;82.22;100139.73;106267;1270;22859;-60
2022/01/17 05:36:14;;;;;;;13.70;4.30;;;;;;;4.29;82.50;100147.62;105841;1271;24972;-60
2022/01/17 05:38:46;;;;;;;12.40;2.90;;;;;;;4.29;82.57;100142.98;106241;1270;22531;-61
2022/01/17 05:41:18;;;;;;;16.50;4.20;;;;;;;4.27;82.74;100148.31;106475;1271;22542;-63
2022/01/17 05:43:50;;;;;;;14.30;3.60;;;;;;;4.26;82.79;100156.86;106523;1270;25372;-59
2022/01/17 05:46:27;;;;;;;16.00;4.50;;;;;;;4.25;83.05;100159.20;106556;1270;24019;-61
2022/01/17 05:48:59;;;;;;;15.60;3.90;;;;;;;4.23;83.33;100155.70;106776;1271;22547;-60
2022/01/17 05:51:30;;;;;;;16.30;4.10;;;;;;;4.19;83.55;100157.77;106877;1270;24263;-59
2022/01/17 05:54:02;;;;;;;13.20;4.40;;;;;;;4.16;83.79;100152.73;106403;1270;22493;-61
2022/01/17 05:56:44;;;;;;;17.60;4.70;;;;;;;4.12;84.05;100160.27;106680;1270;22480;-62
2022/01/17 05:59:23;;;;;;;17.60;4.60;;;;;;;4.08;84.31;100158.46;106647;1270;22562;-60
2022/01/17 06:01:57;;;;;;;16.90;4.10;;;;;;;4.05;84.55;100159.97;106500;1270;24252;-61
2022/01/17 06:04:31;;;;;;;15.70;4.40;;;;;;;4.00;84.96;100150.72;108237;1270;22609;-61
2022/01/17 06:07:03;;;;;;;17.80;5.00;;;;;;;3.97;85.00;100146.55;108217;1269;22550;-61
2022/01/17 06:09:34;;;;;;;16.20;5.50;;;;;;;3.93;85.32;100137.36;106963;1270;24227;-62
2022/01/17 06:12:07;;;;;;;17.40;5.10;;;;;;;3.90;85.50;100138.23;106802;1270;25099;-61
2022/01/17 06:14:39;;;;;;;19.30;5.70;;;;;;;3.89;85.57;100129.34;106739;1270;22559;-61
2022/01/17 06:17:10;;;;;;;14.20;3.70;;;;;;;3.88;85.54;100114.85;106724;1270;22554;-61
2022/01/17 06:19:41;;;;;;;16.80;4.20;;;;;;;3.88;85.65;100102.92;106918;1270;24346;-60
2022/01/17 06:22:13;;;;;;;18.10;5.50;;;;;;;3.88;85.58;100086.52;106893;1271;22657;-61
2022/01/17 06:24:44;;;;;;;17.10;5.10;;;;;;;3.89;85.60;100083.66;106784;1270;22533;-61
2022/01/17 06:27:21;;;;;;;14.20;4.40;;;;;;;3.88;85.66;100075.55;106702;1270;25267;-60
2022/01/17 06:29:53;;;;;;;15.60;4.60;;;;;;;3.89;85.60;100069.60;106721;1268;22546;-62
2022/01/17 06:32:24;;;;;;;15.90;3.90;;;;;;;3.90;85.55;100072.02;106620;1270;25383;-61
2022/01/17 06:34:59;;;;;;;18.50;4.20;;;;;;;3.91;85.30;100082.71;106920;1270;26227;-61
2022/01/17 06:38:11;;;;;;;14.40;4.40;;;;;;;3.95;85.03;100079.91;106749;1270;22542;-61
2022/01/17 06:40:50;;;;;;;16.90;3.50;;;;;;;4.00;84.84;100076.48;106714;1270;22842;-59
2022/01/17 06:43:31;;;;;;;16.60;4.60;;;;;;;4.04;84.58;100071.22;106708;1270;22610;-60
2022/01/17 06:46:04;;;;;;;13.00;2.80;;;;;;;4.05;84.52;100064.07;106618;1271;24327;-62
2022/01/17 06:48:39;;;;;;;19.60;4.00;;;;;;;4.07;84.27;100040.58;106710;1270;22570;-60
2022/01/17 06:51:15;;;;;;;14.30;4.00;;;;;;;4.09;84.16;100013.08;106633;1270;25387;-62
2022/01/17 06:53:48;;;;;;;17.60;4.60;;;;;;;4.11;84.03;100004.95;106728;1270;25265;-61
2022/01/17 06:56:19;;;;;;;14.40;4.20;;;;;;;4.13;83.93;99975.40;106739;1270;25334;-61
2022/01/17 06:58:50;;;;;;;15.40;4.20;;;;;;;4.16;83.87;99949.48;106689;1270;22563;-60
2022/01/17 07:01:23;;;;;;;14.40;4.00;;;;;;;4.17;83.74;99942.91;106503;1270;25379;-59
2022/01/17 07:03:54;;;;;;;12.60;3.40;;;;;;;4.19;83.60;99944.64;106649;1271;25537;-61
2022/01/17 07:06:40;;;;;;;13.20;4.20;;;;;;;4.21;83.55;99953.02;106782;1270;23986;-61
2022/01/17 07:09:16;;;;;;;19.10;3.60;;;;;;;4.23;83.56;99961.02;107257;1270;22691;-60
2022/01/17 07:11:48;;;;;;;13.00;2.90;;;;;;;4.25;83.21;99978.95;108001;1270;22916;-61
2022/01/17 07:14:22;;;;;;;16.80;3.30;;;;;;;4.29;83.00;99987.27;107026;1270;22551;-61
2022/01/17 07:16:56;;;;;;;12.50;2.90;;;;;;;4.34;82.99;99987.84;107027;1270;25305;-61
2022/01/17 07:19:27;;;;;;;11.70;2.60;;;;;;;4.36;82.98;99993.14;107002;1270;24233;-61
2022/01/17 07:21:58;;;;;;;13.40;2.80;;;;;;;4.37;82.76;100011.40;106918;1271;26587;-61
2022/01/17 07:24:30;;;;;;;13.40;3.40;;;;;;;4.40;82.70;100015.52;106947;1270;22557;-61
2022/01/17 07:27:01;;;;;;;16.50;3.40;;;;;;;4.43;82.60;100016.12;106945;1270;23957;-60
2022/01/17 07:29:33;;;;;;;12.60;2.80;;;;;;;4.46;82.57;100008.38;106953;1270;22997;-60
2022/01/17 07:32:05;;;;;;;10.90;2.10;;;;;;;4.48;82.48;99991.88;106942;1270;24216;-59
2022/01/17 07:34:35;;;;;;;14.10;3.00;;;;;;;4.49;82.78;99974.69;106954;1270;24239;-61
2022/01/17 07:37:07;;;;;;;12.50;2.70;;;;;;;4.48;83.06;99946.30;106901;1270;22490;-60
2022/01/17 07:39:39;;;;;;;8.70;2.10;;;;;;;4.45;83.08;99923.02;106893;1270;22550;-61
2022/01/17 07:42:11;;;;;;;10.70;2.30;;;;;;;4.44;83.10;99924.42;106423;1270;22541;-60
2022/01/17 07:44:52;;;;;;;11.00;2.40;;;;;;;4.43;82.96;99922.39;106030;1270;25258;-61
2022/01/17 07:47:38;;;;;;;11.50;2.20;;;;;;;4.44;83.05;99930.09;105786;1270;24443;-62
2022/01/17 07:50:16;;;;;;;7.70;2.00;;;;;;;4.44;83.12;99930.33;105977;1271;22605;-60
2022/01/17 07:52:48;;;;;;;11.60;2.20;;;;;;;4.43;83.09;99915.81;106414;1270;22792;-60
2022/01/17 07:55:22;;;;;;;14.00;1.60;;;;;;;4.43;83.20;99925.86;106908;1270;23071;-60
2022/01/17 07:57:57;;;;;;;9.30;1.90;;;;;;;4.41;83.15;99925.98;106951;1270;22605;-62
2022/01/17 08:00:28;;;;;;;7.00;1.50;;;;;;;4.39;83.47;99924.39;107161;1270;24362;-61
2022/01/17 08:03:02;;;;;;;8.70;1.20;;;;;;;4.35;83.47;99937.17;106854;1270;22476;-60
2022/01/17 08:05:34;;;;;;;6.40;1.10;;;;;;;4.30;83.80;99921.39;106825;1270;23980;-59
2022/01/17 08:08:06;;;;;;;7.40;1.20;;;;;;;4.25;83.91;99902.45;106746;1270;22535;-59
2022/01/17 08:10:39;;;;;;;6.70;1.20;;;;;;;4.20;84.15;99883.42;106890;1270;22662;-60
2022/01/17 08:13:12;;;;;;;7.10;1.30;;;;;;;4.15;84.34;99883.05;107033;1270;22624;-61
2022/01/17 08:15:46;;;;;;;6.60;1.10;;;;;;;4.11;84.63;99871.81;106506;1269;22525;-59
2022/01/17 08:18:17;;;;;;;6.30;1.10;;;;;;;4.08;84.65;99871.75;105819;1270;24329;-61
2022/01/17 08:20:49;;;;;;;6.50;1.00;;;;;;;4.06;84.91;99859.58;105989;1270;24185;-60
2022/01/17 08:23:20;;;;;;;7.50;1.00;;;;;;;4.05;84.78;99868.54;106132;1270;22522;-60
2022/01/17 08:25:51;;;;;;;6.30;1.30;;;;;;;4.05;84.79;99861.98;106087;1271;22635;-60
2022/01/17 08:28:23;;;;;;;8.70;0.80;;;;;;;4.05;85.02;99883.69;106040;1270;22760;-59
2022/01/17 08:30:54;;;;;;;9.00;1.60;;;;;;;4.05;85.32;99869.73;106073;1270;24234;-59
2022/01/17 08:33:28;;;;;;;6.10;1.00;;;;;;;4.03;85.57;99865.04;106375;1270;22545;-59
2022/01/17 08:35:59;;;;;;;6.70;1.10;;;;;;;4.01;85.75;99861.39;106024;1270;22610;-61
2022/01/17 08:38:31;;;;;;;5.80;1.10;;;;;;;3.99;86.02;99858.61;105992;1270;22546;-62
2022/01/17 08:41:02;;;;;;;7.10;1.00;;;;;;;3.97;86.30;99847.80;106119;1270;22708;-61
2022/01/17 08:43:33;;;;;;;7.50;1.40;;;;;;;3.94;86.54;99835.33;105962;1271;24397;-62
2022/01/17 08:46:06;;;;;;;6.80;1.00;;;;;;;3.93;86.47;99812.48;106166;1270;25426;-60
2022/01/17 08:48:38;;;;;;;9.60;1.20;;;;;;;3.93;86.51;99822.43;106009;1270;22535;-61
2022/01/17 08:51:10;;;;;;;5.60;1.00;;;;;;;3.94;86.72;99819.40;106022;1271;25491;-60
2022/01/17 08:53:41;;;;;;;5.00;1.00;;;;;;;3.94;86.82;99821.77;106127;1271;24384;-60
2022/01/17 08:56:13;;;;;;;5.00;1.00;;;;;;;3.95;86.83;99803.81;106053;1271;25354;-60
2022/01/17 08:58:45;;;;;;;8.60;1.00;;;;;;;3.95;86.81;99796.94;106157;1270;22550;-59
2022/01/17 09:01:16;;;;;;;6.20;1.10;;;;;;;3.96;86.96;99809.55;106100;1271;22641;-60
2022/01/17 09:03:48;;;;;;;4.50;0.60;;;;;;;3.97;86.81;99816.45;106086;1271;22601;-60
2022/01/17 09:06:23;;;;;;;3.80;0.60;;;;;;;3.99;86.82;99810.48;105881;1270;24248;-60
2022/01/17 09:08:54;;;;;;;3.90;0.70;;;;;;;3.99;86.71;99833.50;105911;1270;22571;-60
2022/01/17 09:11:30;;;;;;;6.90;0.70;;;;;;;4.01;86.73;99821.15;106199;1270;23905;-60
2022/01/17 09:14:09;;;;;;;6.60;0.60;;;;;;;4.03;86.54;99817.86;106032;1271;22588;-60
2022/01/17 09:16:46;;;;;;;4.70;0.90;;;;;;;4.03;86.45;99828.39;106118;1270;22546;-60
2022/01/17 09:19:19;;;;;;;2.50;0.60;;;;;;;4.05;86.25;99809.41;106133;1270;25206;-60
2022/01/17 09:21:53;;;;;;;7.00;0.80;;;;;;;4.06;86.15;99828.06;105907;1270;22539;-61
2022/01/17 09:24:31;;;;;;;4.00;0.50;;;;;;;4.09;86.02;99845.36;105987;1270;25389;-61
2022/01/17 09:27:04;;;;;;;4.40;0.50;;;;;;;4.12;85.91;99832.46;106375;1270;22531;-59
2022/01/17 09:29:36;;;;;;;4.70;0.60;;;;;;;4.15;85.86;99824.56;106002;1270;22650;-60
2022/01/17 09:32:11;;;;;;;3.70;0.70;;;;;;;4.18;85.81;99816.23;106088;1270;25362;-60
2022/01/17 09:34:46;;;;;;;4.80;0.60;;;;;;;4.22;85.76;99806.64;106243;1270;24442;-60
2022/01/17 09:37:17;;;;;;;4.10;0.70;;;;;;;4.26;85.53;99805.16;106114;1271;24402;-61
2022/01/17 09:39:53;;;;;;;4.40;0.60;;;;;;;4.30;85.42;99799.64;106133;1270;24230;-61
2022/01/17 09:42:24;;;;;;;3.70;0.60;;;;;;;4.35;85.31;99805.33;106101;1270;25333;-61
2022/01/17 09:44:56;;;;;;;5.20;0.70;;;;;;;4.39;85.19;99794.05;106303;1270;25482;-61
2022/01/17 09:47:28;;;;;;;4.70;0.70;;;;;;;4.42;85.50;99770.34;106033;1271;22559;-60
2022/01/17 09:50:01;;;;;;;6.70;1.10;;;;;;;4.43;85.82;99759.21;105813;1270;25481;-61
2022/01/17 09:52:35;;;;;;;3.20;0.60;;;;;;;4.43;85.93;99769.27;106096;1270;23064;-60
2022/01/17 09:55:11;;;;;;;3.60;0.60;;;;;;;4.44;86.15;99769.08;106186;1271;25322;-60
2022/01/17 09:57:49;;;;;;;3.70;0.70;;;;;;;4.44;86.14;99776.50;106167;1270;22545;-61
2022/01/17 10:00:26;;;;;;;8.60;0.80;;;;;;;4.46;86.10;99763.33;106015;1271;22762;-60
2022/01/17 10:03:00;;;;;;;5.70;0.50;;;;;;;4.49;85.88;99774.74;105967;1271;24777;-61
2022/01/17 10:05:35;;;;;;;4.40;0.70;;;;;;;4.52;85.70;99765.40;105990;1270;23002;-61
2022/01/17 10:08:11;;;;;;;4.30;0.70;;;;;;;4.56;85.78;99766.45;106022;1270;25371;-60
2022/01/17 10:10:50;;;;;;;5.40;0.60;;;;;;;4.58;85.61;99755.46;106013;1270;23064;-60
2022/01/17 10:13:24;;;;;;;3.00;0.70;;;;;;;4.61;85.37;99762.30;105943;1270;22597;-60
2022/01/17 10:16:18;;;;;;;10.00;0.80;;;;;;;4.68;85.31;99770.44;105976;1271;24309;-61
2022/01/17 10:19:10;;;;;;;4.30;0.60;;;;;;;4.73;85.14;99733.39;105965;1271;25471;-59
2022/01/17 10:21:46;;;;;;;4.10;0.60;;;;;;;4.76;85.07;99716.38;106151;1270;25361;-60
2022/01/17 10:24:24;;;;;;;9.70;1.30;;;;;;;4.77;84.96;99729.84;106088;1270;24412;-60
2022/01/17 10:27:12;;;;;;;4.60;0.70;;;;;;;4.78;85.03;99730.77;106074;1270;22553;-60
2022/01/17 10:35:31;;;;;;;5.90;0.60;;;;;;;4.88;84.66;99732.30;106077;1270;22554;-60
2022/01/17 10:38:10;;;;;;;5.90;1.10;;;;;;;4.88;84.85;99741.83;106174;1270;22640;-62
2022/01/17 10:40:44;;;;;;;3.80;0.60;;;;;;;4.88;84.94;99740.77;106124;1270;25602;-62
2022/01/17 10:43:25;;;;;;;3.90;0.50;;;;;;;4.85;85.15;99743.20;106038;1271;22545;-60
2022/01/17 10:45:58;;;;;;;4.50;0.70;;;;;;;4.83;85.44;99730.69;106153;1270;22549;-60
2022/01/17 10:48:35;;;;;;;4.40;0.60;;;;;;;4.80;85.63;99718.15;106210;1270;22543;-60
2022/01/17 10:51:08;;;;;;;5.30;1.50;;;;;;;4.77;85.96;99717.28;106353;1270;24429;-59
2022/01/17 10:53:43;;;;;;;7.50;0.90;;;;;;;4.76;86.14;99712.91;106049;1270;24285;-60
2022/01/17 10:56:16;;;;;;;2.20;0.50;;;;;;;4.76;86.19;99696.08;106110;1270;24359;-62
2022/01/17 10:59:01;;;;;;;6.90;0.80;;;;;;;4.77;86.16;99696.21;105889;1270;24440;-61
2022/01/17 11:01:40;;;;;;;4.50;0.70;;;;;;;4.78;86.23;99692.84;105870;1270;25412;-60
2022/01/17 11:04:11;;;;;;;6.90;0.80;;;;;;;4.79;86.31;99697.88;106141;1270;22621;-62
2022/01/17 11:06:57;;;;;;;5.40;0.50;;;;;;;4.80;86.07;99709.54;106162;1270;24224;-60
2022/01/17 11:09:37;;;;;;;8.40;0.90;;;;;;;4.81;86.10;99719.36;106046;1270;24244;-61
2022/01/17 11:12:10;;;;;;;;;;;;;;;4.81;86.59;99759.98;105999;1270;22543;-63
2022/01/17 11:14:42;;;;;;;2.30;0.50;;;;;;;4.78;87.11;99881.92;106051;1271;25329;-64
2022/01/17 11:17:23;;;;;;;1.30;0.20;;;;;;;4.64;87.28;99920.47;105929;1270;25375;-66
2022/01/17 11:20:04;;;;;;;1.50;0.10;;;;;;;4.07;84.39;99945.25;106167;1271;24237;-65
2022/01/17 11:22:37;;;;;;;1.80;0.20;;;;;;;3.41;84.42;99968.67;106109;1270;22563;-63
2022/01/17 11:25:12;;;;;;;0.30;0.00;;;;;;;2.92;85.19;99989.23;106070;1271;25542;-63
2022/01/17 11:27:43;;;;;;;0.50;0.10;;;;;;;2.58;85.55;99997.27;106024;1271;25493;-63
2022/01/17 11:30:16;;;;;;;1.20;0.20;;;;;;;2.33;85.97;100015.95;105924;1270;22541;-63
2022/01/17 11:32:49;;;;;;;2.80;0.20;;;;;;;2.12;86.22;100015.34;106052;1270;22558;-63
2022/01/17 11:35:21;;;;;;;2.60;0.40;;;;;;;1.95;86.44;100013.90;105910;1270;25384;-62
2022/01/17 11:37:58;;;;;;;1.40;0.30;;;;;;;1.83;86.68;100024.47;106054;1270;22549;-62
2022/01/17 11:40:33;;;;;;;7.20;0.50;;;;;;;1.69;87.13;100032.23;105725;1270;23168;-62
2022/01/17 11:43:19;;;;;;;3.20;0.30;;;;;;;1.59;87.29;100042.10;106144;1271;25296;-64
2022/01/17 11:45:51;;;;;;;2.50;0.30;;;;;;;1.50;87.88;100058.94;105990;1270;26605;-63
2022/01/17 11:48:31;;;;;;;3.40;0.40;;;;;;;1.46;88.06;100066.08;106049;1270;25346;-60
2022/01/17 11:51:14;;;;;;;3.60;0.40;;;;;;;1.43;87.94;100061.25;106108;1271;24254;-61
2022/01/17 11:53:48;;;;;;;4.10;0.40;;;;;;;1.43;87.86;100049.17;106049;1270;22544;-61
2022/01/17 11:56:40;;;;;;;1.90;0.30;;;;;;;1.44;87.75;100048.50;106024;1270;26700;-60
2022/01/17 11:59:40;;;;;;;4.80;0.50;;;;;;;1.49;87.09;100047.88;106014;1271;22537;-60
2022/01/17 12:02:28;;;;;;;2.90;0.30;;;;;;;1.52;87.26;100055.11;105821;1270;308885;-61
2022/01/17 12:05:45;;;;;;;1.50;0.20;;;;;;;1.58;86.89;100063.48;105943;1271;23106;-60
2022/01/17 12:08:21;;;;;;;5.70;0.50;;;;;;;1.65;86.84;100074.13;105954;1270;24641;-60
2022/01/17 12:10:59;;;;;;;5.90;0.60;;;;;;;1.71;86.62;100082.92;106003;1271;25367;-61
2022/01/17 12:17:28;;;;;;;5.40;0.60;;;;;;;1.81;86.33;100120.99;105765;1270;23366;-61